createdAt,value
2022-11-19T00:02:17.658Z,-2.44
2022-11-19T00:04:45.634Z,-2.55
2022-11-19T00:07:13.401Z,-2.71
2022-11-19T00:09:41.239Z,-2.61
2022-11-19T00:12:28.126Z,-2.51
2022-11-19T00:14:57.374Z,-2.49
2022-11-19T00:17:25.285Z,-2.44
2022-11-19T00:19:53.152Z,-2.44
2022-11-19T00:22:21.002Z,-2.52
2022-11-19T00:24:56.002Z,-2.44
2022-11-19T00:27:23.828Z,-2.61
2022-11-19T00:29:51.594Z,-2.57
2022-11-19T00:32:20.989Z,-2.67
2022-11-19T00:34:48.739Z,-2.69
2022-11-19T00:37:16.564Z,-2.77
2022-11-19T00:39:44.344Z,-2.94
2022-11-19T00:42:12.468Z,-2.91
2022-11-19T00:44:40.201Z,-2.86
2022-11-19T00:47:08.187Z,-2.94
2022-11-19T00:49:37.465Z,-2.91
2022-11-19T00:52:05.739Z,-2.90
2022-11-19T00:54:33.581Z,-2.98
2022-11-19T00:57:01.368Z,-3.14
2022-11-19T00:59:29.337Z,-3.09
2022-11-19T01:01:57.322Z,-2.96
2022-11-19T01:04:25.122Z,-3.00
2022-11-19T01:06:54.525Z,-3.09
2022-11-19T01:09:22.428Z,-3.14
2022-11-19T01:11:50.285Z,-3.04
2022-11-19T01:14:18.361Z,-2.98
2022-11-19T01:16:46.268Z,-2.94
2022-11-19T01:19:16.640Z,-3.09
2022-11-19T01:21:45.007Z,-3.14
2022-11-19T01:24:14.155Z,-3.05
2022-11-19T01:26:45.739Z,-3.12
2022-11-19T01:29:14.231Z,-3.25
2022-11-19T01:31:42.168Z,-3.12
2022-11-19T01:34:10.141Z,-2.98
2022-11-19T01:36:38.024Z,-3.01
2022-11-19T01:39:05.856Z,-2.98
2022-11-19T01:41:35.148Z,-3.06
2022-11-19T01:44:05.371Z,-3.12
2022-11-19T01:46:35.306Z,-3.15
2022-11-19T01:49:08.112Z,-3.23
2022-11-19T01:51:39.029Z,-3.09
2022-11-19T01:54:11.901Z,-2.92
2022-11-19T01:56:41.267Z,-3.05
2022-11-19T01:59:12.633Z,-3.21
2022-11-19T02:01:40.457Z,-3.23
2022-11-19T02:04:09.143Z,-3.10
2022-11-19T02:06:37.977Z,-3.07
2022-11-19T02:09:06.036Z,-3.08
2022-11-19T02:12:10.637Z,-3.27
2022-11-19T02:15:07.218Z,-3.25
2022-11-19T02:17:48.086Z,-3.26
2022-11-19T02:20:58.315Z,-3.19
2022-11-19T02:23:47.701Z,-3.19
2022-11-19T02:26:43.912Z,-3.31
2022-11-19T02:29:27.341Z,-2.97
2022-11-19T02:32:01.935Z,-2.77
2022-11-19T02:34:34.044Z,-2.75
2022-11-19T02:37:10.370Z,-2.73
2022-11-19T02:39:42.340Z,-2.75
2022-11-19T02:42:18.829Z,-2.72
2022-11-19T02:45:02.746Z,-2.85
2022-11-19T02:47:37.516Z,-2.95
2022-11-19T02:50:12.219Z,-2.98
2022-11-19T02:52:40.798Z,-2.97
2022-11-19T02:55:11.564Z,-3.07
2022-11-19T02:57:39.561Z,-3.11
2022-11-19T03:00:26.319Z,-3.09
2022-11-19T03:03:17.269Z,-3.17
2022-11-19T03:05:48.911Z,-3.13
2022-11-19T03:08:17.223Z,-3.20
2022-11-19T03:11:03.742Z,-3.13
2022-11-19T03:13:57.765Z,-3.01
2022-11-19T03:16:42.529Z,-2.90
2022-11-19T03:19:28.972Z,-2.80
2022-11-19T03:21:59.921Z,-2.70
2022-11-19T03:24:33.589Z,-2.78
2022-11-19T03:27:09.619Z,-2.71
2022-11-19T03:29:41.331Z,-2.65
2022-11-19T03:32:14.335Z,-2.66
2022-11-19T03:34:46.325Z,-2.77
2022-11-19T03:37:18.607Z,-2.81
2022-11-19T03:39:48.417Z,-2.91
2022-11-19T03:42:19.737Z,-2.86
2022-11-19T03:44:51.949Z,-2.92
2022-11-19T03:47:25.830Z,-2.96
2022-11-19T03:50:00.839Z,-2.90
2022-11-19T03:52:28.835Z,-2.84
2022-11-19T03:54:57.129Z,-2.70
2022-11-19T03:57:25.928Z,-2.65
2022-11-19T03:59:53.748Z,-2.69
2022-11-19T04:02:22.024Z,-2.65
2022-11-19T04:04:49.837Z,-2.69
2022-11-19T04:07:21.922Z,-2.65
2022-11-19T04:09:50.175Z,-2.65
2022-11-19T04:12:20.099Z,-2.66
2022-11-19T04:14:48.436Z,-2.65
2022-11-19T04:17:16.540Z,-2.53
2022-11-19T04:19:44.591Z,-2.58
2022-11-19T04:22:12.587Z,-2.61
2022-11-19T04:24:41.792Z,-2.59
2022-11-19T04:27:09.745Z,-2.46
2022-11-19T04:29:37.558Z,-2.46
2022-11-19T04:32:05.808Z,-2.54
2022-11-19T04:34:33.589Z,-2.55
2022-11-19T04:37:01.444Z,-2.46
2022-11-19T04:39:29.248Z,-2.43
2022-11-19T04:41:58.662Z,-2.37
2022-11-19T04:44:26.448Z,-2.46
2022-11-19T04:46:54.330Z,-2.56
2022-11-19T04:49:22.378Z,-2.47
2022-11-19T04:51:50.357Z,-2.38
2022-11-19T04:54:18.190Z,-2.41
2022-11-19T04:56:46.058Z,-2.32
2022-11-19T04:59:15.278Z,-2.31
2022-11-19T05:01:43.285Z,-2.29
2022-11-19T05:04:11.309Z,-2.25
2022-11-19T05:06:39.836Z,-2.39
2022-11-19T05:09:07.886Z,-2.48
2022-11-19T05:11:35.736Z,-2.40
2022-11-19T05:14:03.703Z,-2.51
2022-11-19T05:16:33.018Z,-2.35
2022-11-19T05:19:00.764Z,-2.34
2022-11-19T05:21:28.868Z,-2.21
2022-11-19T05:23:56.679Z,-2.11
2022-11-19T05:26:24.495Z,-2.13
2022-11-19T05:28:52.409Z,-2.09
2022-11-19T05:31:20.159Z,-2.10
2022-11-19T05:33:49.530Z,-2.12
2022-11-19T05:36:17.408Z,-2.04
2022-11-19T05:38:45.290Z,-2.12
2022-11-19T05:41:13.063Z,-2.09
2022-11-19T05:43:40.878Z,-2.09
2022-11-19T05:46:08.980Z,-2.03
2022-11-19T05:48:36.685Z,-2.15
2022-11-19T05:51:06.064Z,-2.13
2022-11-19T05:53:33.876Z,-2.09
2022-11-19T05:56:01.617Z,-2.13
2022-11-19T05:58:29.460Z,-2.22
2022-11-19T06:00:57.486Z,-2.17
2022-11-19T06:03:25.283Z,-2.23
2022-11-19T06:05:53.788Z,-2.27
2022-11-19T06:08:22.934Z,-2.26
2022-11-19T06:10:50.755Z,-2.21
2022-11-19T06:13:18.670Z,-2.29
2022-11-19T06:15:46.865Z,-2.42
2022-11-19T06:18:14.738Z,-2.40
2022-11-19T06:20:42.606Z,-2.35
2022-11-19T06:23:10.383Z,-2.48
2022-11-19T06:25:39.543Z,-2.49
2022-11-19T06:28:07.430Z,-2.42
2022-11-19T06:30:35.481Z,-2.51
2022-11-19T06:33:03.362Z,-2.47
2022-11-19T06:35:31.135Z,-2.40
2022-11-19T06:37:58.919Z,-2.37
2022-11-19T06:40:26.866Z,-2.23
2022-11-19T06:42:56.140Z,-2.20
2022-11-19T06:45:23.881Z,-2.35
2022-11-19T06:47:51.770Z,-2.38
2022-11-19T06:50:19.965Z,-2.37
2022-11-19T06:52:48.010Z,-2.38
2022-11-19T06:55:15.858Z,-2.25
2022-11-19T06:57:43.915Z,-2.25
2022-11-19T07:00:14.711Z,-2.24
2022-11-19T07:02:42.572Z,-2.19
2022-11-19T07:05:10.670Z,-2.14
2022-11-19T07:07:38.620Z,-2.16
2022-11-19T07:10:07.389Z,-2.10
2022-11-19T07:12:35.312Z,-1.97
2022-11-19T07:15:04.756Z,-2.00
2022-11-19T07:17:34.189Z,-1.83
2022-11-19T07:20:02.188Z,-1.78
2022-11-19T07:22:30.026Z,-1.76
2022-11-19T07:24:57.858Z,-1.80
2022-11-19T07:27:25.656Z,-1.72
2022-11-19T07:29:53.470Z,-1.61
2022-11-19T07:32:21.241Z,-1.57
2022-11-19T07:34:50.335Z,-1.55
2022-11-19T07:37:18.629Z,-1.54
2022-11-19T07:39:46.915Z,-1.62
2022-11-19T07:42:32.501Z,-1.51
2022-11-19T07:45:00.308Z,-1.57
2022-11-19T07:47:28.119Z,-1.56
2022-11-19T07:49:57.228Z,-1.45
2022-11-19T07:52:24.997Z,-1.35
2022-11-19T07:54:53.093Z,-1.21
2022-11-19T07:57:24.630Z,-1.10
2022-11-19T07:59:55.207Z,-1.02
2022-11-19T08:02:23.087Z,-0.91
2022-11-19T08:04:50.927Z,-0.82
2022-11-19T08:07:20.205Z,-0.79
2022-11-19T08:09:48.246Z,-0.74
2022-11-19T08:12:16.131Z,-0.62
2022-11-19T08:14:43.963Z,-0.62
2022-11-19T08:17:29.257Z,-0.50
2022-11-19T08:19:57.172Z,-0.61
2022-11-19T08:22:26.586Z,-0.53
2022-11-19T08:24:54.488Z,-0.50
2022-11-19T08:27:22.508Z,-0.38
2022-11-19T08:29:52.380Z,-0.40
2022-11-19T08:32:20.438Z,-0.37
2022-11-19T08:34:48.340Z,-0.31
2022-11-19T08:37:16.284Z,-0.21
2022-11-19T08:39:45.464Z,-0.16
2022-11-19T08:42:30.774Z,-0.06
2022-11-19T08:44:58.624Z,-0.09
2022-11-19T08:47:26.450Z,0.12
2022-11-19T08:49:54.661Z,0.20
2022-11-19T08:52:22.569Z,0.25
2022-11-19T08:54:52.029Z,0.35
2022-11-19T08:57:19.864Z,0.38
2022-11-19T08:59:47.699Z,0.55
2022-11-19T09:02:15.656Z,0.65
2022-11-19T09:04:43.505Z,0.73
2022-11-19T09:07:11.370Z,0.79
2022-11-19T09:09:39.277Z,0.78
2022-11-19T09:12:09.967Z,0.78
2022-11-19T09:14:37.893Z,0.88
2022-11-19T09:17:05.768Z,0.91
2022-11-19T09:19:33.508Z,0.88
2022-11-19T09:22:01.386Z,0.78
2022-11-19T09:24:29.290Z,0.77
2022-11-19T09:27:02.029Z,0.71
2022-11-19T09:29:34.864Z,0.81
2022-11-19T09:32:02.791Z,0.87
2022-11-19T09:34:30.653Z,0.95
2022-11-19T09:36:59.400Z,0.99
2022-11-19T09:39:27.158Z,1.10
2022-11-19T09:42:00.931Z,1.16
2022-11-19T09:44:52.083Z,1.26
2022-11-19T09:47:31.317Z,1.51
2022-11-19T09:50:07.313Z,1.59
2022-11-19T09:52:42.065Z,1.58
2022-11-19T09:55:18.104Z,1.59
2022-11-19T09:57:51.866Z,1.59
2022-11-19T10:00:24.562Z,1.59
2022-11-19T10:02:53.566Z,1.66
2022-11-19T10:05:30.522Z,1.66
2022-11-19T10:08:11.332Z,1.59
2022-11-19T10:10:42.743Z,1.63
2022-11-19T10:13:33.830Z,1.70
2022-11-19T10:16:23.528Z,1.59
2022-11-19T10:19:01.987Z,1.52
2022-11-19T10:21:39.689Z,1.62
2022-11-19T10:24:18.026Z,1.66
2022-11-19T10:26:52.050Z,1.61
2022-11-19T10:29:23.494Z,1.64
2022-11-19T10:31:53.491Z,1.67
2022-11-19T10:34:27.228Z,1.70
2022-11-19T10:36:59.356Z,1.80
2022-11-19T10:39:33.696Z,1.81
2022-11-19T10:42:09.651Z,1.89
2022-11-19T10:44:42.193Z,1.96
2022-11-19T10:47:20.489Z,2.01
2022-11-19T10:49:53.893Z,2.05
2022-11-19T10:52:32.095Z,2.02
2022-11-19T10:55:04.966Z,2.04
2022-11-19T10:57:34.215Z,2.16
2022-11-19T11:00:02.839Z,2.27
2022-11-19T11:02:44.977Z,2.31
2022-11-19T11:05:15.535Z,2.41
2022-11-19T11:07:50.745Z,2.40
2022-11-19T11:10:37.209Z,2.30
2022-11-19T11:13:47.195Z,2.31
2022-11-19T11:16:18.430Z,2.14
2022-11-19T11:18:49.490Z,2.15
2022-11-19T11:21:30.900Z,2.19
2022-11-19T11:23:59.105Z,2.14
2022-11-19T11:26:29.358Z,2.22
2022-11-19T11:29:05.626Z,2.30
2022-11-19T11:31:38.828Z,2.20
2022-11-19T11:34:14.704Z,2.19
2022-11-19T11:36:44.269Z,2.14
2022-11-19T11:39:26.339Z,2.07
2022-11-19T11:42:05.360Z,1.97
2022-11-19T11:44:36.649Z,1.96
2022-11-19T11:47:11.904Z,1.99
2022-11-19T11:49:43.800Z,2.02
2022-11-19T11:52:19.158Z,2.14
2022-11-19T11:54:58.769Z,2.14
2022-11-19T11:57:28.648Z,2.25
2022-11-19T11:59:56.992Z,2.29
2022-11-19T12:02:30.531Z,2.39
2022-11-19T12:05:02.740Z,2.48
2022-11-19T12:08:01.137Z,2.57
2022-11-19T12:10:36.432Z,2.63
2022-11-19T12:13:52.028Z,2.67
2022-11-19T12:16:29.135Z,2.62
2022-11-19T12:19:11.901Z,2.56
2022-11-19T12:21:51.622Z,2.55
2022-11-19T12:24:31.227Z,2.50
2022-11-19T12:27:12.843Z,2.52
2022-11-19T12:29:49.324Z,2.53
2022-11-19T12:32:31.103Z,2.67
2022-11-19T12:35:14.672Z,2.69
2022-11-19T12:37:55.977Z,2.64
2022-11-19T12:40:40.473Z,2.61
2022-11-19T12:43:21.301Z,2.70
2022-11-19T12:45:59.285Z,2.64
2022-11-19T12:48:47.547Z,2.71
2022-11-19T12:51:23.840Z,2.71
2022-11-19T12:54:16.981Z,2.67
2022-11-19T12:56:56.470Z,2.78
2022-11-19T12:59:43.227Z,2.78
2022-11-19T13:02:19.766Z,2.93
2022-11-19T13:04:53.888Z,2.93
2022-11-19T13:07:25.589Z,3.07
2022-11-19T13:10:03.701Z,3.04
2022-11-19T13:12:37.572Z,3.02
2022-11-19T13:15:16.181Z,3.02
2022-11-19T13:17:47.974Z,3.04
2022-11-19T13:20:19.995Z,3.04
2022-11-19T13:22:50.812Z,2.98
2022-11-19T13:25:25.105Z,2.91
2022-11-19T13:27:55.826Z,2.77
2022-11-19T13:30:26.657Z,2.66
2022-11-19T13:33:10.925Z,2.67
2022-11-19T13:35:47.461Z,2.60
2022-11-19T13:38:23.359Z,2.57
2022-11-19T13:41:00.295Z,2.56
2022-11-19T13:43:45.825Z,2.63
2022-11-19T13:46:22.894Z,2.64
2022-11-19T13:48:57.511Z,2.56
2022-11-19T13:51:32.998Z,2.47
2022-11-19T13:54:03.837Z,2.42
2022-11-19T13:56:47.012Z,2.40
2022-11-19T13:59:30.878Z,2.35
2022-11-19T14:02:13.984Z,2.26
2022-11-19T14:05:00.263Z,2.24
2022-11-19T14:07:49.147Z,2.28
2022-11-19T14:10:24.527Z,2.20
2022-11-19T14:13:22.037Z,2.23
2022-11-19T14:16:26.256Z,2.14
2022-11-19T14:19:14.010Z,2.14
2022-11-19T14:22:03.635Z,2.18
2022-11-19T14:25:11.568Z,2.15
2022-11-19T14:27:39.861Z,2.14
2022-11-19T14:30:11.625Z,2.18
2022-11-19T14:32:47.307Z,2.17
2022-11-19T14:35:41.445Z,2.21
2022-11-19T14:38:30.889Z,2.08
2022-11-19T14:41:15.980Z,2.12
2022-11-19T14:44:12.915Z,2.11
2022-11-19T14:46:47.822Z,2.03
2022-11-19T14:49:34.562Z,2.01
2022-11-19T14:52:03.664Z,1.96
2022-11-19T14:54:35.762Z,1.86
2022-11-19T14:57:26.332Z,1.78
2022-11-19T14:59:57.627Z,1.76
2022-11-19T15:02:45.021Z,1.64
2022-11-19T15:05:22.000Z,1.59
2022-11-19T15:07:56.555Z,1.65
2022-11-19T15:10:28.713Z,1.56
2022-11-19T15:13:16.946Z,1.55
2022-11-19T15:15:46.041Z,1.51
2022-11-19T15:19:10.847Z,1.38
2022-11-19T15:22:13.765Z,1.36
2022-11-19T15:24:58.292Z,1.33
2022-11-19T15:27:42.031Z,1.45
2022-11-19T15:30:17.342Z,1.34
2022-11-19T15:32:56.129Z,1.39
2022-11-19T15:35:36.699Z,1.39
2022-11-19T15:38:19.736Z,1.35
2022-11-19T15:40:49.454Z,1.34
2022-11-19T15:43:25.720Z,1.42
2022-11-19T15:45:56.742Z,1.41
2022-11-19T15:48:32.503Z,1.43
2022-11-19T15:51:01.813Z,1.45
2022-11-19T15:53:31.098Z,1.34
2022-11-19T15:56:02.602Z,1.36
2022-11-19T15:58:36.582Z,1.45
2022-11-19T16:01:04.923Z,1.42
2022-11-19T16:03:33.602Z,1.35
2022-11-19T16:06:04.376Z,1.37
2022-11-19T16:08:34.014Z,1.36
2022-11-19T16:11:20.924Z,1.26
2022-11-19T16:14:10.438Z,1.27
2022-11-19T16:16:56.716Z,1.25
2022-11-19T16:19:24.702Z,1.21
2022-11-19T16:21:57.108Z,1.15
2022-11-19T16:24:54.526Z,1.12
2022-11-19T16:27:25.273Z,1.12
2022-11-19T16:29:53.173Z,1.12
2022-11-19T16:32:22.888Z,1.07
2022-11-19T16:34:50.859Z,1.14
2022-11-19T16:37:21.516Z,1.15
2022-11-19T16:39:53.146Z,1.15
2022-11-19T16:42:26.678Z,1.09
2022-11-19T16:44:56.174Z,1.00
2022-11-19T16:47:28.787Z,1.08
2022-11-19T16:50:02.467Z,1.01
2022-11-19T16:52:38.097Z,1.00
2022-11-19T16:55:36.133Z,1.03
2022-11-19T16:58:14.792Z,0.95
2022-11-19T17:00:47.990Z,0.95
2022-11-19T17:03:20.420Z,1.06
2022-11-19T17:05:51.281Z,1.04
2022-11-19T17:08:23.754Z,1.02
2022-11-19T17:11:30.715Z,0.98
2022-11-19T17:13:58.645Z,1.00
2022-11-19T17:16:27.233Z,0.98
2022-11-19T17:18:54.975Z,0.99
2022-11-19T17:21:26.976Z,1.03
2022-11-19T17:23:55.384Z,1.02
2022-11-19T17:26:27.486Z,1.04
2022-11-19T17:29:01.298Z,1.01
2022-11-19T17:31:29.486Z,1.06
2022-11-19T17:33:59.344Z,1.09
2022-11-19T17:36:28.377Z,1.11
2022-11-19T17:38:56.185Z,1.10
2022-11-19T17:41:45.651Z,1.05
2022-11-19T17:44:33.918Z,1.12
2022-11-19T17:47:02.586Z,1.10
2022-11-19T17:49:31.172Z,1.13
2022-11-19T17:51:59.445Z,1.09
2022-11-19T17:54:27.525Z,1.17
2022-11-19T17:56:56.667Z,1.21
2022-11-19T17:59:24.687Z,1.21
2022-11-19T18:01:52.834Z,1.21
2022-11-19T18:04:20.862Z,1.18
2022-11-19T18:06:49.626Z,1.18
2022-11-19T18:09:17.760Z,1.24
2022-11-19T18:11:45.635Z,1.22
2022-11-19T18:14:14.896Z,1.23
2022-11-19T18:16:43.756Z,1.21
2022-11-19T18:19:13.888Z,1.22
2022-11-19T18:21:43.187Z,1.18
2022-11-19T18:24:12.407Z,1.28
2022-11-19T18:26:40.236Z,1.29
2022-11-19T18:29:08.106Z,1.33
2022-11-19T18:31:44.178Z,1.27
2022-11-19T18:34:18.875Z,1.29
2022-11-19T18:36:46.809Z,1.33
2022-11-19T18:39:15.090Z,1.29
2022-11-19T18:41:43.226Z,1.31
2022-11-19T18:44:32.118Z,1.32
2022-11-19T18:47:02.206Z,1.38
2022-11-19T18:49:30.266Z,1.37
2022-11-19T18:51:58.128Z,1.37
2022-11-19T18:54:26.174Z,1.43
2022-11-19T18:56:54.332Z,1.40
2022-11-19T18:59:22.912Z,1.37
2022-11-19T19:01:52.372Z,1.46
2022-11-19T19:04:21.576Z,1.41
2022-11-19T19:06:50.030Z,1.47
2022-11-19T19:09:20.412Z,1.46
2022-11-19T19:12:11.385Z,1.53
2022-11-19T19:14:41.118Z,1.51
2022-11-19T19:17:09.334Z,1.51
2022-11-19T19:19:38.785Z,1.45
2022-11-19T19:22:08.064Z,1.48
2022-11-19T19:24:36.279Z,1.44
2022-11-19T19:27:04.662Z,1.48
2022-11-19T19:29:32.519Z,1.50
2022-11-19T19:32:00.388Z,1.41
2022-11-19T19:34:29.793Z,1.46
2022-11-19T19:37:10.200Z,1.52
2022-11-19T19:39:37.962Z,1.51
2022-11-19T19:42:06.160Z,1.51
2022-11-19T19:44:35.180Z,1.58
2022-11-19T19:47:03.083Z,1.52
2022-11-19T19:49:33.498Z,1.58
2022-11-19T19:52:05.773Z,1.54
2022-11-19T19:54:35.042Z,1.61
2022-11-19T19:57:03.076Z,1.59
2022-11-19T19:59:30.896Z,1.54
2022-11-19T20:01:58.706Z,1.55
2022-11-19T20:04:26.780Z,1.57
2022-11-19T20:06:54.711Z,1.51
2022-11-19T20:09:24.054Z,1.59
2022-11-19T20:11:53.381Z,1.55
2022-11-19T20:14:21.130Z,1.51
2022-11-19T20:16:48.856Z,1.58
2022-11-19T20:19:17.385Z,1.50
2022-11-19T20:21:47.118Z,1.47
2022-11-19T20:24:15.446Z,1.58
2022-11-19T20:26:43.600Z,1.52
2022-11-19T20:29:14.705Z,1.56
2022-11-19T20:31:47.322Z,1.58
2022-11-19T20:34:16.199Z,1.57
2022-11-19T20:36:44.790Z,1.59
2022-11-19T20:39:13.064Z,1.56
2022-11-19T20:41:58.774Z,1.56
2022-11-19T20:44:28.081Z,1.54
2022-11-19T20:46:57.409Z,1.50
2022-11-19T20:49:27.051Z,1.56
2022-11-19T20:51:55.672Z,1.45
2022-11-19T20:54:25.195Z,1.49
2022-11-19T20:56:54.257Z,1.54
2022-11-19T20:59:23.648Z,1.44
2022-11-19T21:01:54.750Z,1.53
2022-11-19T21:04:23.361Z,1.51
2022-11-19T21:06:51.352Z,1.45
2022-11-19T21:09:20.524Z,1.51
2022-11-19T21:11:49.012Z,1.45
2022-11-19T21:14:16.895Z,1.50
2022-11-19T21:16:44.947Z,1.51
2022-11-19T21:19:15.504Z,1.52
2022-11-19T21:21:44.191Z,1.50
2022-11-19T21:24:12.321Z,1.50
2022-11-19T21:26:40.308Z,1.49
2022-11-19T21:29:08.400Z,1.40
2022-11-19T21:31:42.175Z,1.33
2022-11-19T21:34:12.383Z,1.44
2022-11-19T21:36:42.897Z,1.40
2022-11-19T21:39:12.111Z,1.28
2022-11-19T21:41:40.108Z,1.32
2022-11-19T21:44:08.256Z,1.31
2022-11-19T21:46:37.467Z,1.31
2022-11-19T21:49:06.278Z,1.25
2022-11-19T21:51:34.594Z,1.30
2022-11-19T21:54:03.685Z,1.28
2022-11-19T21:56:37.117Z,1.23
2022-11-19T21:59:06.926Z,1.30
2022-11-19T22:01:35.462Z,1.25
2022-11-19T22:04:03.355Z,1.17
2022-11-19T22:06:31.527Z,1.23
2022-11-19T22:08:59.507Z,1.25
2022-11-19T22:11:32.306Z,1.26
2022-11-19T22:14:02.591Z,1.21
2022-11-19T22:16:31.884Z,1.28
2022-11-19T22:19:00.443Z,1.21
2022-11-19T22:21:29.075Z,1.24
2022-11-19T22:23:57.724Z,1.26
2022-11-19T22:26:25.563Z,1.23
2022-11-19T22:28:55.091Z,1.14
2022-11-19T22:31:23.053Z,1.23
2022-11-19T22:33:52.034Z,1.30
2022-11-19T22:36:21.293Z,1.23
2022-11-19T22:38:49.723Z,1.17
2022-11-19T22:41:19.253Z,1.14
2022-11-19T22:43:48.333Z,1.18
2022-11-19T22:46:18.027Z,1.22
2022-11-19T22:48:45.941Z,1.22
2022-11-19T22:51:16.114Z,1.16
2022-11-19T22:53:44.478Z,1.21
2022-11-19T22:56:14.499Z,1.17
2022-11-19T22:58:43.210Z,1.21
2022-11-19T23:01:18.601Z,1.11
2022-11-19T23:03:47.198Z,1.12
2022-11-19T23:06:15.410Z,1.12
2022-11-19T23:08:43.417Z,1.19
2022-11-19T23:11:11.832Z,1.15
2022-11-19T23:13:40.520Z,1.12
2022-11-19T23:16:10.893Z,1.12
2022-11-19T23:18:41.832Z,1.09
2022-11-19T23:21:11.802Z,1.01
2022-11-19T23:23:39.767Z,1.02
2022-11-19T23:26:09.536Z,0.99
2022-11-19T23:28:38.419Z,0.99
2022-11-19T23:31:07.606Z,0.95
2022-11-19T23:33:35.635Z,0.97
2022-11-19T23:36:06.438Z,0.91
2022-11-19T23:38:36.320Z,0.97
2022-11-19T23:41:05.282Z,0.91
2022-11-19T23:43:33.494Z,0.96
2022-11-19T23:46:05.192Z,0.97
2022-11-19T23:48:34.061Z,1.00
2022-11-19T23:51:03.126Z,0.99
2022-11-19T23:53:32.533Z,1.01
2022-11-19T23:56:00.856Z,0.98
2022-11-19T23:58:28.830Z,0.97
